createdAt,value
2022-11-05T00:00:33.238Z,66.65
2022-11-05T00:03:18.631Z,72.22
2022-11-05T00:06:20.426Z,72.00
2022-11-05T00:09:05.249Z,74.00
2022-11-05T00:11:50.342Z,72.53
2022-11-05T00:14:35.069Z,70.32
2022-11-05T00:17:01.412Z,68.90
2022-11-05T00:19:27.812Z,70.75
2022-11-05T00:22:12.825Z,74.13
2022-11-05T00:24:57.846Z,70.00
2022-11-05T00:27:24.184Z,72.78
2022-11-05T00:29:50.558Z,71.68
2022-11-05T00:32:16.903Z,71.68
2022-11-05T00:34:43.283Z,71.75
2022-11-05T00:37:09.596Z,69.47
2022-11-05T00:39:35.926Z,71.05
2022-11-05T00:42:20.989Z,73.43
2022-11-05T00:45:00.744Z,63.45
2022-11-05T00:47:45.587Z,66.30
2022-11-05T00:50:12.357Z,60.78
2022-11-05T00:52:58.192Z,72.00
2022-11-05T00:55:33.595Z,62.65
2022-11-05T00:58:01.826Z,66.78
2022-11-05T01:00:30.126Z,64.85
2022-11-05T01:03:11.508Z,66.07
2022-11-05T01:05:41.258Z,61.42
2022-11-05T01:08:09.607Z,58.25
2022-11-05T01:10:51.221Z,49.20
2022-11-05T01:13:22.309Z,47.67
2022-11-05T01:15:50.808Z,47.88
2022-11-05T01:18:19.103Z,50.70
2022-11-05T01:20:46.268Z,49.90
2022-11-05T01:23:13.916Z,50.80
2022-11-05T01:25:41.733Z,47.78
2022-11-05T01:28:09.517Z,47.45
2022-11-05T01:30:36.747Z,46.28
2022-11-05T01:33:03.435Z,45.72
2022-11-05T01:35:29.938Z,48.63
2022-11-05T01:37:56.276Z,50.55
2022-11-05T01:40:24.225Z,45.72
2022-11-05T01:42:50.605Z,46.97
2022-11-05T01:45:25.966Z,52.50
2022-11-05T01:48:04.582Z,53.63
2022-11-05T01:50:43.235Z,54.08
2022-11-05T01:53:18.523Z,52.80
2022-11-05T01:55:54.239Z,54.53
2022-11-05T01:58:24.460Z,51.55
2022-11-05T02:00:51.155Z,56.60
2022-11-05T02:03:18.743Z,59.25
2022-11-05T02:05:46.001Z,63.63
2022-11-05T02:08:21.506Z,67.88
2022-11-05T02:10:48.580Z,69.47
2022-11-05T02:13:15.103Z,69.22
2022-11-05T02:16:09.688Z,70.68
2022-11-05T02:19:06.130Z,64.13
2022-11-05T02:21:56.499Z,67.70
2022-11-05T02:24:54.188Z,68.35
2022-11-05T02:27:57.449Z,69.55
2022-11-05T02:30:45.571Z,66.35
2022-11-05T02:33:33.777Z,68.90
2022-11-05T02:36:31.236Z,65.35
2022-11-05T02:39:12.881Z,67.70
2022-11-05T02:41:59.279Z,70.32
2022-11-05T02:45:00.935Z,64.68
2022-11-05T02:47:44.088Z,65.35
2022-11-05T02:50:20.221Z,60.97
2022-11-05T02:52:57.906Z,64.10
2022-11-05T02:55:34.472Z,63.70
2022-11-05T02:58:03.148Z,57.47
2022-11-05T03:00:38.479Z,56.30
2022-11-05T03:03:07.755Z,62.60
2022-11-05T03:05:44.262Z,63.35
2022-11-05T03:08:25.006Z,59.85
2022-11-05T03:11:21.769Z,60.20
2022-11-05T03:14:12.627Z,55.05
2022-11-05T03:16:42.046Z,59.53
2022-11-05T03:19:28.245Z,68.18
2022-11-05T03:22:14.222Z,60.25
2022-11-05T03:24:46.505Z,64.57
2022-11-05T03:27:19.608Z,70.05
2022-11-05T03:29:53.439Z,64.10
2022-11-05T03:32:22.365Z,59.05
2022-11-05T03:34:56.714Z,60.13
2022-11-05T03:37:26.965Z,49.58
2022-11-05T03:39:58.547Z,55.67
2022-11-05T03:42:29.817Z,55.60
2022-11-05T03:44:59.536Z,57.40
2022-11-05T03:47:32.524Z,57.67
2022-11-05T03:50:17.682Z,62.90
2022-11-05T03:52:52.499Z,60.03
2022-11-05T03:55:24.522Z,64.70
2022-11-05T03:57:55.507Z,64.47
2022-11-05T04:00:23.473Z,65.20
2022-11-05T04:02:50.213Z,64.43
2022-11-05T04:05:16.814Z,71.22
2022-11-05T04:08:03.054Z,69.63
2022-11-05T04:10:47.752Z,75.40
2022-11-05T04:13:25.861Z,67.65
2022-11-05T04:16:11.832Z,71.10
2022-11-05T04:18:38.478Z,73.07
2022-11-05T04:21:24.489Z,72.30
2022-11-05T04:24:09.997Z,68.18
2022-11-05T04:26:39.213Z,71.15
2022-11-05T04:29:24.690Z,71.43
2022-11-05T04:31:51.183Z,71.93
2022-11-05T04:34:18.865Z,72.22
2022-11-05T04:36:46.208Z,65.18
2022-11-05T04:39:12.628Z,70.65
2022-11-05T04:41:38.966Z,68.20
2022-11-05T04:44:05.333Z,66.75
2022-11-05T04:46:31.659Z,73.18
2022-11-05T04:48:57.948Z,70.05
2022-11-05T04:51:24.265Z,74.32
2022-11-05T04:53:50.596Z,74.40
2022-11-05T04:56:23.150Z,72.00
2022-11-05T04:58:49.682Z,70.25
2022-11-05T05:01:18.471Z,72.28
2022-11-05T05:03:48.276Z,69.03
2022-11-05T05:06:14.704Z,70.80
2022-11-05T05:08:41.187Z,68.40
2022-11-05T05:11:10.731Z,71.63
2022-11-05T05:13:37.917Z,71.88
2022-11-05T05:16:09.516Z,72.78
2022-11-05T05:18:35.962Z,65.43
2022-11-05T05:21:21.290Z,69.00
2022-11-05T05:23:48.463Z,60.05
2022-11-05T05:26:17.948Z,64.10
2022-11-05T05:28:44.329Z,62.40
2022-11-05T05:31:10.784Z,66.10
2022-11-05T05:33:37.138Z,67.43
2022-11-05T05:36:08.502Z,67.63
2022-11-05T05:38:37.356Z,65.85
2022-11-05T05:41:03.689Z,69.03
2022-11-05T05:43:33.954Z,65.80
2022-11-05T05:46:04.893Z,64.35
2022-11-05T05:48:31.485Z,68.55
2022-11-05T05:51:02.210Z,65.70
2022-11-05T05:53:29.428Z,67.82
2022-11-05T05:55:56.290Z,68.28
2022-11-05T05:58:23.849Z,70.35
2022-11-05T06:00:50.173Z,69.22
2022-11-05T06:03:16.497Z,67.35
2022-11-05T06:05:42.813Z,69.35
2022-11-05T06:08:09.130Z,70.00
2022-11-05T06:10:35.755Z,68.15
2022-11-05T06:13:02.555Z,71.53
2022-11-05T06:15:34.600Z,74.00
2022-11-05T06:18:02.102Z,72.90
2022-11-05T06:20:28.422Z,70.35
2022-11-05T06:22:56.199Z,73.95
2022-11-05T06:25:22.562Z,70.00
2022-11-05T06:27:48.855Z,71.95
2022-11-05T06:30:15.497Z,68.72
2022-11-05T06:32:41.809Z,66.78
2022-11-05T06:35:09.243Z,69.70
2022-11-05T06:37:35.832Z,69.75
2022-11-05T06:40:02.205Z,71.90
2022-11-05T06:42:28.511Z,74.30
2022-11-05T06:44:55.180Z,70.32
2022-11-05T06:47:22.106Z,70.78
2022-11-05T06:49:48.860Z,72.20
2022-11-05T06:52:15.790Z,66.43
2022-11-05T06:54:43.721Z,68.30
2022-11-05T06:57:11.777Z,67.80
2022-11-05T06:59:39.235Z,68.40
2022-11-05T07:02:06.727Z,62.75
2022-11-05T07:04:33.654Z,62.42
2022-11-05T07:07:00.931Z,60.53
2022-11-05T07:09:28.477Z,56.13
2022-11-05T07:11:55.664Z,59.70
2022-11-05T07:14:22.003Z,61.50
2022-11-05T07:16:50.121Z,63.75
2022-11-05T07:19:16.445Z,61.85
2022-11-05T07:21:42.914Z,58.05
2022-11-05T07:24:09.224Z,63.40
2022-11-05T07:26:35.570Z,60.58
2022-11-05T07:29:02.034Z,59.80
2022-11-05T07:31:28.338Z,66.72
2022-11-05T07:33:54.691Z,64.15
2022-11-05T07:36:21.019Z,67.20
2022-11-05T07:38:47.359Z,65.38
2022-11-05T07:41:13.724Z,63.00
2022-11-05T07:43:40.042Z,65.18
2022-11-05T07:46:11.154Z,64.97
2022-11-05T07:48:39.889Z,64.85
2022-11-05T07:51:06.280Z,64.97
2022-11-05T07:53:32.602Z,64.68
2022-11-05T07:55:58.924Z,66.50
2022-11-05T07:58:25.271Z,63.85
2022-11-05T08:00:51.720Z,63.83
2022-11-05T08:03:18.739Z,65.63
2022-11-05T08:05:47.062Z,65.95
2022-11-05T08:08:15.443Z,63.75
2022-11-05T08:10:42.268Z,68.53
2022-11-05T08:13:09.501Z,67.22
2022-11-05T08:15:36.583Z,61.15
2022-11-05T08:18:12.253Z,66.22
2022-11-05T08:20:40.379Z,66.55
2022-11-05T08:23:06.794Z,69.22
2022-11-05T08:25:33.622Z,68.78
2022-11-05T08:28:02.434Z,61.03
2022-11-05T08:30:29.330Z,59.08
2022-11-05T08:33:00.456Z,55.13
2022-11-05T08:35:27.370Z,52.92
2022-11-05T08:38:02.619Z,53.90
2022-11-05T08:40:31.469Z,50.33
2022-11-05T08:42:59.436Z,50.10
2022-11-05T08:45:27.024Z,52.50
2022-11-05T08:48:05.774Z,48.45
2022-11-05T08:50:32.400Z,46.42
2022-11-05T08:52:59.387Z,42.50
2022-11-05T08:55:26.577Z,46.75
2022-11-05T08:57:57.461Z,51.67
2022-11-05T09:00:24.448Z,44.85
2022-11-05T09:02:50.812Z,49.17
2022-11-05T09:05:17.192Z,46.63
2022-11-05T09:07:43.597Z,50.20
2022-11-05T09:10:10.644Z,52.13
2022-11-05T09:12:36.955Z,49.25
2022-11-05T09:15:03.714Z,48.67
2022-11-05T09:17:30.052Z,46.53
2022-11-05T09:19:56.359Z,44.80
2022-11-05T09:22:22.702Z,43.20
2022-11-05T09:24:49.005Z,42.88
2022-11-05T09:27:15.350Z,43.53
2022-11-05T09:29:42.430Z,42.38
2022-11-05T09:32:09.321Z,40.03
2022-11-05T09:34:36.301Z,38.55
2022-11-05T09:37:02.958Z,32.88
2022-11-05T09:39:30.089Z,33.80
2022-11-05T09:42:04.784Z,30.30
2022-11-05T09:44:49.140Z,28.02
2022-11-05T09:47:24.782Z,27.60
2022-11-05T09:49:56.511Z,28.88
2022-11-05T09:52:27.880Z,28.60
2022-11-05T09:54:55.561Z,29.40
2022-11-05T09:57:45.007Z,30.90
2022-11-05T10:00:16.449Z,31.52
2022-11-05T10:02:56.285Z,34.35
2022-11-05T10:05:25.138Z,35.35
2022-11-05T10:07:57.326Z,24.38
2022-11-05T10:10:37.864Z,23.95
2022-11-05T10:13:33.950Z,14.52
2022-11-05T10:16:06.565Z,14.55
2022-11-05T10:18:36.809Z,14.50
2022-11-05T10:21:03.839Z,13.98
2022-11-05T10:23:30.327Z,11.57
2022-11-05T10:26:02.853Z,12.13
2022-11-05T10:28:31.807Z,11.63
2022-11-05T10:31:04.690Z,11.43
2022-11-05T10:33:42.389Z,10.23
2022-11-05T10:36:24.921Z,10.07
2022-11-05T10:38:52.961Z,11.93
2022-11-05T10:41:42.622Z,10.98
2022-11-05T10:44:48.457Z,10.93
2022-11-05T10:47:36.446Z,12.40
2022-11-05T10:50:09.901Z,10.27
2022-11-05T10:52:50.731Z,9.32
2022-11-05T10:55:23.983Z,9.70
2022-11-05T10:57:50.664Z,10.07
2022-11-05T11:00:16.966Z,11.50
2022-11-05T11:02:49.125Z,9.90
2022-11-05T11:05:32.237Z,9.80
2022-11-05T11:08:18.096Z,8.77
2022-11-05T11:11:02.032Z,9.75
2022-11-05T11:13:48.484Z,10.88
2022-11-05T11:16:19.971Z,9.70
2022-11-05T11:18:46.359Z,10.50
2022-11-05T11:21:23.184Z,11.77
2022-11-05T11:24:18.744Z,12.38
2022-11-05T11:26:45.178Z,11.38
2022-11-05T11:29:24.035Z,12.48
2022-11-05T11:31:54.793Z,16.10
2022-11-05T11:34:33.658Z,13.73
2022-11-05T11:37:19.351Z,13.48
2022-11-05T11:39:51.782Z,14.35
2022-11-05T11:42:29.300Z,11.75
2022-11-05T11:44:59.097Z,11.52
2022-11-05T11:47:28.050Z,11.80
2022-11-05T11:49:57.122Z,14.57
2022-11-05T11:52:31.202Z,13.80
2022-11-05T11:55:12.783Z,16.08
2022-11-05T11:57:51.969Z,15.15
2022-11-05T12:00:20.540Z,15.85
2022-11-05T12:03:16.493Z,14.73
2022-11-05T12:06:10.781Z,13.52
2022-11-05T12:09:06.428Z,13.13
2022-11-05T12:11:41.947Z,12.63
2022-11-05T12:14:32.393Z,11.68
2022-11-05T12:17:09.729Z,14.98
2022-11-05T12:19:52.381Z,13.57
2022-11-05T12:22:51.925Z,17.90
2022-11-05T12:25:49.194Z,11.32
2022-11-05T12:28:18.536Z,11.52
2022-11-05T12:31:00.479Z,12.00
2022-11-05T12:33:39.239Z,11.25
2022-11-05T12:36:15.471Z,11.63
2022-11-05T12:38:58.834Z,11.25
2022-11-05T12:41:55.098Z,10.20
2022-11-05T12:44:38.808Z,10.13
2022-11-05T12:47:35.112Z,10.10
2022-11-05T12:50:20.233Z,9.73
2022-11-05T12:53:05.176Z,9.45
2022-11-05T12:55:39.477Z,8.77
2022-11-05T12:58:12.901Z,9.07
2022-11-05T13:00:44.388Z,8.13
2022-11-05T13:03:36.050Z,8.52
2022-11-05T13:06:09.946Z,8.52
2022-11-05T13:08:47.858Z,9.52
2022-11-05T13:11:23.619Z,8.07
2022-11-05T13:14:09.888Z,9.70
2022-11-05T13:16:40.260Z,8.45
2022-11-05T13:19:28.119Z,8.95
2022-11-05T13:22:09.556Z,7.78
2022-11-05T13:24:49.675Z,9.43
2022-11-05T13:27:19.056Z,8.98
2022-11-05T13:29:58.023Z,9.00
2022-11-05T13:32:24.264Z,8.13
2022-11-05T13:34:59.327Z,8.23
2022-11-05T13:37:52.773Z,7.85
2022-11-05T13:40:25.484Z,8.43
2022-11-05T13:43:27.940Z,8.13
2022-11-05T13:46:12.160Z,7.53
2022-11-05T13:48:54.648Z,9.43
2022-11-05T13:51:39.201Z,7.30
2022-11-05T13:54:34.252Z,7.43
2022-11-05T13:57:32.608Z,6.97
2022-11-05T14:00:16.018Z,6.90
2022-11-05T14:03:05.024Z,6.97
2022-11-05T14:05:41.326Z,6.90
2022-11-05T14:08:12.297Z,7.30
2022-11-05T14:10:41.604Z,8.30
2022-11-05T14:13:34.944Z,7.20
2022-11-05T14:16:09.685Z,7.03
2022-11-05T14:18:35.928Z,8.88
2022-11-05T14:21:04.296Z,7.43
2022-11-05T14:23:30.724Z,7.65
2022-11-05T14:26:13.031Z,8.45
2022-11-05T14:28:45.856Z,8.40
2022-11-05T14:31:18.122Z,7.45
2022-11-05T14:33:54.984Z,7.35
2022-11-05T14:36:21.228Z,7.88
2022-11-05T14:38:53.352Z,7.90
2022-11-05T14:41:20.893Z,8.32
2022-11-05T14:44:01.373Z,8.77
2022-11-05T14:46:42.910Z,7.95
2022-11-05T14:49:17.439Z,8.05
2022-11-05T14:51:53.046Z,8.75
2022-11-05T14:54:41.172Z,9.13
2022-11-05T14:57:12.533Z,9.23
2022-11-05T14:59:52.766Z,8.10
2022-11-05T15:02:26.518Z,8.95
2022-11-05T15:05:31.263Z,8.40
2022-11-05T15:07:58.412Z,9.35
2022-11-05T15:10:35.002Z,7.72
2022-11-05T15:13:06.110Z,9.32
2022-11-05T15:15:43.539Z,8.43
2022-11-05T15:18:29.552Z,9.57
2022-11-05T15:21:00.706Z,7.97
2022-11-05T15:23:36.362Z,9.27
2022-11-05T15:26:27.491Z,8.32
2022-11-05T15:28:55.327Z,8.13
2022-11-05T15:31:30.777Z,9.40
2022-11-05T15:34:15.243Z,9.35
2022-11-05T15:36:48.651Z,8.85
2022-11-05T15:39:29.959Z,9.00
2022-11-05T15:41:59.199Z,8.48
2022-11-05T15:44:38.752Z,8.80
2022-11-05T15:47:07.274Z,8.90
2022-11-05T15:49:33.984Z,9.00
2022-11-05T15:52:00.361Z,9.15
2022-11-05T15:54:30.808Z,8.27
2022-11-05T15:56:59.673Z,9.13
2022-11-05T15:59:29.119Z,10.13
2022-11-05T16:02:18.288Z,11.20
2022-11-05T16:04:48.101Z,9.80
2022-11-05T16:07:15.592Z,9.00
2022-11-05T16:09:49.965Z,9.63
2022-11-05T16:15:17.227Z,8.60
2022-11-05T16:17:53.445Z,9.07
2022-11-05T16:20:22.974Z,9.23
2022-11-05T16:22:52.842Z,10.20
2022-11-05T16:25:26.973Z,11.50
2022-11-05T16:27:53.369Z,10.75
2022-11-05T16:30:20.064Z,12.40
2022-11-05T16:32:47.204Z,12.77
2022-11-05T16:35:24.131Z,11.30
2022-11-05T16:37:52.645Z,13.55
2022-11-05T16:40:25.244Z,12.80
2022-11-05T16:42:53.714Z,12.70
2022-11-05T16:45:23.804Z,12.77
2022-11-05T16:47:50.998Z,13.38
2022-11-05T16:50:18.766Z,14.90
2022-11-05T16:52:46.553Z,13.43
2022-11-05T16:55:14.465Z,13.82
2022-11-05T16:57:42.906Z,12.13
2022-11-05T17:00:13.400Z,13.10
2022-11-05T17:02:39.924Z,13.77
2022-11-05T17:05:16.341Z,13.80
2022-11-05T17:07:42.840Z,13.05
2022-11-05T17:10:09.234Z,12.65
2022-11-05T17:12:36.261Z,13.13
2022-11-05T17:15:02.592Z,13.13
2022-11-05T17:17:29.092Z,12.10
2022-11-05T17:19:55.489Z,14.30
2022-11-05T17:22:21.810Z,13.40
2022-11-05T17:24:48.130Z,13.75
2022-11-05T17:27:14.703Z,14.85
2022-11-05T17:29:41.005Z,14.20
2022-11-05T17:32:07.630Z,14.60
2022-11-05T17:34:33.924Z,15.32
2022-11-05T17:37:00.225Z,13.88
2022-11-05T17:39:31.431Z,14.43
2022-11-05T17:41:58.265Z,15.80
2022-11-05T17:44:24.549Z,14.00
2022-11-05T17:46:51.137Z,14.75
2022-11-05T17:49:17.469Z,14.80
2022-11-05T17:51:43.806Z,14.50
2022-11-05T17:54:10.221Z,13.82
2022-11-05T17:56:41.712Z,14.35
2022-11-05T17:59:10.576Z,13.68
2022-11-05T18:01:41.308Z,13.93
2022-11-05T18:04:09.149Z,14.32
2022-11-05T18:06:37.330Z,15.35
2022-11-05T18:09:05.487Z,14.80
2022-11-05T18:11:32.408Z,14.77
2022-11-05T18:13:58.895Z,14.38
2022-11-05T18:16:25.297Z,13.80
2022-11-05T18:18:51.594Z,15.15
2022-11-05T18:21:17.941Z,15.57
2022-11-05T18:23:44.308Z,15.27
2022-11-05T18:26:12.252Z,15.25
2022-11-05T18:28:39.252Z,16.73
2022-11-05T18:31:16.841Z,16.45
2022-11-05T18:33:44.465Z,16.58
2022-11-05T18:36:19.233Z,15.63
2022-11-05T18:38:46.004Z,16.42
2022-11-05T18:41:12.332Z,16.25
2022-11-05T18:43:38.631Z,16.77
2022-11-05T18:46:06.082Z,16.90
2022-11-05T18:48:32.403Z,17.10
2022-11-05T18:51:01.839Z,18.48
2022-11-05T18:53:28.604Z,18.17
2022-11-05T18:55:54.956Z,18.50
2022-11-05T18:58:21.259Z,18.38
2022-11-05T19:00:47.562Z,17.65
2022-11-05T19:03:13.888Z,17.10
2022-11-05T19:05:40.187Z,18.52
2022-11-05T19:08:06.587Z,18.20
2022-11-05T19:10:32.902Z,18.13
2022-11-05T19:12:59.219Z,17.80
2022-11-05T19:15:25.536Z,18.08
2022-11-05T19:17:51.849Z,17.63
2022-11-05T19:20:18.165Z,15.98
2022-11-05T19:22:44.477Z,18.58
2022-11-05T19:25:10.852Z,17.90
2022-11-05T19:27:38.498Z,17.02
2022-11-05T19:30:06.103Z,16.67
2022-11-05T19:32:32.563Z,17.20
2022-11-05T19:34:58.856Z,16.85
2022-11-05T19:37:25.247Z,17.30
2022-11-05T19:39:52.006Z,17.30
2022-11-05T19:42:18.311Z,16.88
2022-11-05T19:44:44.621Z,17.20
2022-11-05T19:47:11.095Z,17.48
2022-11-05T19:49:37.407Z,17.30
2022-11-05T19:52:03.779Z,15.90
2022-11-05T19:54:30.134Z,15.70
2022-11-05T19:56:56.459Z,17.15
2022-11-05T19:59:22.756Z,15.43
2022-11-05T20:01:53.331Z,16.52
2022-11-05T20:04:23.396Z,17.05
2022-11-05T20:06:49.712Z,14.77
2022-11-05T20:09:23.486Z,17.27
2022-11-05T20:11:53.654Z,14.85
2022-11-05T20:14:20.019Z,16.20
2022-11-05T20:16:46.956Z,15.73
2022-11-05T20:19:16.599Z,14.02
2022-11-05T20:21:43.243Z,14.68
2022-11-05T20:24:12.342Z,14.68
2022-11-05T20:26:38.791Z,16.10
2022-11-05T20:29:05.420Z,16.05
2022-11-05T20:31:32.049Z,15.25
2022-11-05T20:33:58.429Z,13.35
2022-11-05T20:36:25.964Z,13.93
2022-11-05T20:38:55.207Z,14.23
2022-11-05T20:41:21.627Z,14.48
2022-11-05T20:43:48.052Z,13.93
2022-11-05T20:46:17.016Z,14.93
2022-11-05T20:48:44.113Z,13.15
2022-11-05T20:51:17.486Z,12.80
2022-11-05T20:53:46.016Z,12.07
2022-11-05T20:56:23.074Z,12.05
2022-11-05T20:58:50.308Z,11.80
2022-11-05T21:01:17.574Z,11.93
2022-11-05T21:03:45.069Z,13.18
2022-11-05T21:06:11.801Z,13.10
2022-11-05T21:08:38.263Z,13.00
2022-11-05T21:11:05.239Z,14.30
2022-11-05T21:13:31.600Z,13.82
2022-11-05T21:15:59.916Z,14.32
2022-11-05T21:18:29.333Z,15.95
2022-11-05T21:20:56.131Z,13.63
2022-11-05T21:23:23.103Z,13.40
2022-11-05T21:25:49.590Z,13.90
2022-11-05T21:28:16.618Z,13.93
2022-11-05T21:30:45.730Z,13.57
2022-11-05T21:33:13.939Z,14.00
2022-11-05T21:35:43.707Z,14.20
2022-11-05T21:38:11.810Z,14.18
2022-11-05T21:40:38.806Z,13.07
2022-11-05T21:43:05.645Z,13.02
2022-11-05T21:45:32.443Z,14.40
2022-11-05T21:47:58.981Z,13.82
2022-11-05T21:50:44.076Z,13.32
2022-11-05T21:56:37.549Z,12.23
2022-11-05T21:59:23.754Z,12.48
2022-11-05T22:01:50.644Z,14.52
2022-11-05T22:04:17.138Z,14.32
2022-11-05T22:06:43.521Z,16.38
2022-11-05T22:09:09.882Z,16.70
2022-11-05T22:11:37.395Z,16.55
2022-11-05T22:14:04.260Z,17.70
2022-11-05T22:16:30.572Z,18.15
2022-11-05T22:18:57.914Z,18.23
2022-11-05T22:21:24.308Z,16.58
2022-11-05T22:23:52.080Z,17.95
2022-11-05T22:26:18.680Z,17.05
2022-11-05T22:28:45.052Z,17.83
2022-11-05T22:31:16.241Z,19.25
2022-11-05T22:33:43.365Z,16.73
2022-11-05T22:36:10.087Z,18.48
2022-11-05T22:38:36.474Z,17.00
2022-11-05T22:41:11.130Z,18.08
2022-11-05T22:43:38.208Z,17.75
2022-11-05T22:46:06.623Z,17.92
2022-11-05T22:48:35.532Z,18.05
2022-11-05T22:51:10.640Z,17.85
2022-11-05T22:53:37.750Z,16.98
2022-11-05T22:56:15.791Z,17.73
2022-11-05T22:58:42.912Z,17.63
2022-11-05T23:01:14.019Z,18.00
2022-11-05T23:03:42.023Z,17.38
2022-11-05T23:06:38.716Z,18.33
2022-11-05T23:09:32.894Z,17.00
2022-11-05T23:12:00.653Z,19.50
2022-11-05T23:14:27.068Z,18.85
2022-11-05T23:17:12.171Z,18.85
2022-11-05T23:19:56.760Z,16.42
2022-11-05T23:25:17.135Z,14.60
2022-11-05T23:27:45.161Z,16.63
2022-11-05T23:30:14.933Z,18.52
2022-11-05T23:32:41.543Z,17.10
2022-11-05T23:35:08.620Z,18.90
2022-11-05T23:37:53.463Z,19.40
2022-11-05T23:40:25.951Z,18.65
2022-11-05T23:43:11.337Z,19.35
2022-11-05T23:45:55.039Z,20.17
2022-11-05T23:48:27.594Z,17.90
2022-11-05T23:51:08.864Z,18.10
2022-11-05T23:53:37.354Z,17.00
2022-11-05T23:56:12.623Z,17.45
2022-11-05T23:58:40.172Z,18.50
